Time;durP1;ratioP1;P1;durP2;ratioP2;P2;SDS_P1;SDS_P2;PMS_P1;PMS_P2;Temp;Humidity;BMP_temperature;BMP_pressure;BME280_temperature;BME280_humidity;BME280_pressure;Samples;Min_cycle;Max_cycle;Signal;HPM_P1;HPM_P2
2022/04/05 00:03:25;;;;;;;36.40;12.35;;;;;;;9.55;100.00;100593.81;10378506;28;20052;-74
2022/04/05 00:08:25;;;;;;;28.95;11.40;;;;;;;9.50;100.00;100596.25;10378551;28;20120;-74
2022/04/05 00:13:26;;;;;;;18.98;10.38;;;;;;;9.42;100.00;100596.44;10378124;28;20034;-74
2022/04/05 00:18:26;;;;;;;18.50;10.65;;;;;;;9.36;100.00;100607.19;10359708;28;20124;-74
2022/04/05 00:23:27;;;;;;;23.02;12.13;;;;;;;9.37;100.00;100601.59;10376860;28;20450;-74
2022/04/05 00:28:27;;;;;;;23.48;9.02;;;;;;;9.34;100.00;100604.69;10376462;28;20034;-75
2022/04/05 00:33:28;;;;;;;8.90;6.90;;;;;;;9.28;100.00;100600.06;10378167;28;20030;-72
2022/04/05 00:38:28;;;;;;;13.52;6.53;;;;;;;9.25;100.00;100592.34;10374537;28;20478;-74
2022/04/05 00:43:29;;;;;;;7.47;6.57;;;;;;;9.27;100.00;100601.09;10374998;28;20433;-74
2022/04/05 00:48:36;;;;;;;24.90;8.20;;;;;;;9.24;100.00;100587.97;10376460;28;20450;-74
2022/04/05 00:53:36;;;;;;;7.75;6.97;;;;;;;9.27;100.00;100601.94;10375963;28;20030;-73
2022/04/05 00:58:37;;;;;;;18.13;7.40;;;;;;;9.23;100.00;100597.97;10375478;28;20113;-75
2022/04/05 01:03:38;;;;;;;17.13;7.40;;;;;;;9.24;100.00;100604.19;10376635;28;20454;-74
2022/04/05 01:08:39;;;;;;;18.48;8.15;;;;;;;9.20;100.00;100602.94;10373972;28;20038;-75
2022/04/05 01:13:39;;;;;;;14.93;8.57;;;;;;;9.18;100.00;100596.88;10358329;28;20112;-73
2022/04/05 01:18:39;;;;;;;11.75;6.50;;;;;;;9.18;100.00;100604.97;10357521;28;20089;-73
2022/04/05 01:24:04;;;;;;;12.70;7.70;;;;;;;9.19;100.00;100607.50;10375604;28;20177;-73
2022/04/05 01:29:04;;;;;;;12.05;7.50;;;;;;;9.17;100.00;100608.72;10375299;28;20090;-73
2022/04/05 01:34:05;;;;;;;15.35;8.30;;;;;;;9.16;100.00;100607.06;10374401;28;20104;-73
2022/04/05 01:39:06;;;;;;;18.92;7.78;;;;;;;9.18;100.00;100604.97;10375353;28;20120;-73
2022/04/05 01:44:08;;;;;;;10.98;7.70;;;;;;;9.17;100.00;100604.13;10375317;28;20482;-73
2022/04/05 01:49:10;;;;;;;23.70;8.70;;;;;;;9.13;100.00;100597.47;10373200;28;20508;-73
2022/04/05 01:54:12;;;;;;;22.55;9.32;;;;;;;9.14;100.00;100593.72;10378940;28;20121;-74
2022/04/05 01:59:17;;;;;;;29.23;8.25;;;;;;;9.13;100.00;100586.66;10383001;28;20036;-73
2022/04/05 02:04:17;;;;;;;18.80;9.13;;;;;;;9.12;100.00;100597.66;10380496;28;20034;-74
2022/04/05 02:09:17;;;;;;;18.42;7.45;;;;;;;9.13;100.00;100586.66;10381749;28;20500;-73
2022/04/05 02:14:18;;;;;;;9.95;8.30;;;;;;;9.12;100.00;100589.53;10381315;28;20038;-73
2022/04/05 02:19:18;;;;;;;17.50;9.68;;;;;;;9.08;100.00;100586.41;10382529;28;20062;-74
2022/04/05 02:24:19;;;;;;;11.73;7.97;;;;;;;9.12;100.00;100590.38;10381898;28;20450;-73
2022/04/05 02:29:19;;;;;;;18.35;9.32;;;;;;;9.12;100.00;100586.84;10381128;28;20530;-74
2022/04/05 02:34:20;;;;;;;12.73;10.07;;;;;;;9.14;100.00;100601.00;10380439;28;20034;-74
2022/04/05 02:39:20;;;;;;;10.75;9.65;;;;;;;9.14;100.00;100595.59;10379116;28;20049;-73
2022/04/05 02:44:20;;;;;;;23.63;10.80;;;;;;;9.08;100.00;100592.63;10363114;28;20053;-72
2022/04/05 02:49:21;;;;;;;15.75;8.48;;;;;;;9.12;100.00;100586.84;10380473;28;20092;-73
2022/04/05 02:54:21;;;;;;;18.40;10.05;;;;;;;9.14;100.00;100590.19;10379104;28;20050;-72
2022/04/05 02:59:22;;;;;;;19.50;10.23;;;;;;;9.15;100.00;100581.88;10381085;28;20426;-72
2022/04/05 03:04:22;;;;;;;15.90;11.23;;;;;;;9.16;100.00;100582.75;10380113;28;20040;-73
2022/04/05 03:09:22;;;;;;;15.50;10.30;;;;;;;9.12;100.00;100578.75;10378391;28;20134;-72
2022/04/05 03:14:23;;;;;;;16.90;9.55;;;;;;;9.10;100.00;100575.41;10379028;28;20072;-72
2022/04/05 03:19:23;;;;;;;18.73;11.52;;;;;;;9.14;100.00;100576.69;10379396;28;20155;-73
2022/04/05 03:24:24;;;;;;;15.05;9.18;;;;;;;9.11;100.00;100575.22;10379776;28;20082;-73
2022/04/05 03:29:24;;;;;;;14.35;9.20;;;;;;;9.10;100.00;100568.16;10379477;28;20069;-72
2022/04/05 03:34:24;;;;;;;14.52;8.55;;;;;;;9.12;100.00;100576.03;10378935;28;20041;-73
2022/04/05 03:39:25;;;;;;;16.73;9.85;;;;;;;9.08;100.00;100573.72;10377441;28;20037;-73
2022/04/05 03:44:25;;;;;;;16.25;9.95;;;;;;;9.11;100.00;100575.22;10377428;28;20022;-72
2022/04/05 03:49:26;;;;;;;14.85;9.82;;;;;;;9.12;100.00;100576.03;10377509;28;20025;-72
2022/04/05 03:54:26;;;;;;;16.38;9.30;;;;;;;9.11;100.00;100575.22;10379786;28;20044;-75
2022/04/05 03:59:27;;;;;;;14.40;9.20;;;;;;;9.08;100.00;100571.03;10379293;28;20452;-72
2022/04/05 04:04:27;;;;;;;22.17;12.18;;;;;;;9.08;100.00;100571.03;10378115;28;20103;-74
2022/04/05 04:09:27;;;;;;;33.33;13.73;;;;;;;9.10;100.00;100572.72;10378437;28;20125;-74
2022/04/05 04:14:28;;;;;;;34.85;10.50;;;;;;;9.06;100.00;100572.25;10375362;28;20466;-74
2022/04/05 04:19:28;;;;;;;19.73;9.73;;;;;;;9.00;100.00;100562.25;10377669;28;20053;-74
2022/04/05 04:24:29;;;;;;;22.83;10.70;;;;;;;9.03;100.00;100567.22;10376326;28;20034;-75
2022/04/05 04:29:29;;;;;;;16.10;9.35;;;;;;;9.02;100.00;100569.09;10376754;28;20057;-75
2022/04/05 04:34:29;;;;;;;32.67;10.35;;;;;;;9.01;100.00;100558.50;10377065;28;20421;-74
2022/04/05 04:39:30;;;;;;;18.98;9.10;;;;;;;9.02;100.00;100563.69;10297310;28;20096;-76
2022/04/05 04:44:30;;;;;;;11.98;9.70;;;;;;;9.11;100.00;100568.97;10376851;28;20029;-75
2022/04/05 04:49:30;;;;;;;30.52;12.13;;;;;;;9.07;100.00;100561.25;10377247;28;20030;-76
2022/04/05 04:54:31;;;;;;;16.10;9.93;;;;;;;9.10;100.00;100573.53;10375772;28;20417;-75
2022/04/05 04:59:31;;;;;;;19.58;9.15;;;;;;;9.15;100.00;100581.06;10375634;28;20034;-74
2022/04/05 05:04:32;;;;;;;24.70;8.90;;;;;;;9.15;100.00;100570.25;10378867;28;20034;-75
2022/04/05 05:09:33;;;;;;;18.92;9.18;;;;;;;9.18;100.00;100577.97;10375989;28;20036;-76
2022/04/05 05:14:34;;;;;;;15.18;8.63;;;;;;;9.24;100.00;100574.47;10374363;28;20506;-77
2022/04/05 05:19:34;;;;;;;16.95;8.27;;;;;;;9.22;100.00;100581.94;10378785;28;20192;-77
2022/04/05 05:24:35;;;;;;;12.65;8.45;;;;;;;9.21;100.00;100583.81;10378434;28;20041;-77
2022/04/05 05:29:36;;;;;;;18.48;9.38;;;;;;;9.19;100.00;100580.47;10357690;28;20049;-77
2022/04/05 05:34:36;;;;;;;22.65;9.30;;;;;;;9.21;100.00;100589.22;10372746;28;20045;-77
2022/04/05 05:39:37;;;;;;;18.45;7.50;;;;;;;9.22;100.00;100590.03;10373780;28;20038;-77
2022/04/05 05:44:37;;;;;;;15.02;8.32;;;;;;;9.23;100.00;100591.72;10374943;28;20041;-78
2022/04/05 05:49:38;;;;;;;14.75;8.45;;;;;;;9.27;100.00;100603.81;10374089;28;20081;-78
2022/04/05 05:54:39;;;;;;;16.08;10.82;;;;;;;9.31;100.00;100599.66;10374570;28;20121;-76
2022/04/05 05:59:39;;;;;;;11.32;8.07;;;;;;;9.31;100.00;100594.25;10376138;28;20545;-78
2022/04/05 06:04:40;;;;;;;16.42;6.13;;;;;;;9.33;100.00;100605.72;10372963;28;20085;-76
2022/04/05 06:09:40;;;;;;;12.48;8.02;;;;;;;9.30;100.00;100608.81;10376357;28;20037;-77
2022/04/05 06:14:40;;;;;;;20.67;8.27;;;;;;;9.30;100.00;100600.72;10377014;28;20386;-77
2022/04/05 06:19:41;;;;;;;14.77;7.47;;;;;;;9.30;100.00;100609.66;10377466;28;20050;-77
2022/04/05 06:24:41;;;;;;;12.15;6.75;;;;;;;9.38;100.00;100607.81;10383021;28;20453;-76
2022/04/05 06:29:42;;;;;;;10.38;6.75;;;;;;;9.45;100.00;100603.31;10390987;28;20041;-77
2022/04/05 06:34:42;;;;;;;16.50;7.10;;;;;;;9.52;100.00;100606.91;10389977;28;20033;-78
2022/04/05 06:39:43;;;;;;;6.45;5.72;;;;;;;9.57;100.00;100612.53;10391055;28;20374;-79
2022/04/05 06:44:43;;;;;;;24.35;6.30;;;;;;;9.64;100.00;100621.53;10401720;28;20026;-79
2022/04/05 06:49:47;;;;;;;16.42;5.07;;;;;;;9.74;100.00;100611.19;10386246;28;20470;-77
2022/04/05 06:54:47;;;;;;;11.13;5.03;;;;;;;9.83;100.00;100628.09;10397639;28;20034;-79
2022/04/05 06:59:47;;;;;;;5.55;5.05;;;;;;;9.90;100.00;100626.25;10384933;28;20080;-78
2022/04/05 07:04:48;;;;;;;9.88;5.45;;;;;;;9.98;100.00;100636.91;10385508;28;20049;-77
2022/04/05 07:09:49;;;;;;;9.70;5.53;;;;;;;10.01;100.00;100631.09;10382854;28;20042;-78
2022/04/05 07:14:50;;;;;;;11.77;4.93;;;;;;;10.04;100.00;100639.84;10383813;28;20045;-78
2022/04/05 07:19:50;;;;;;;15.93;4.53;;;;;;;10.04;100.00;100639.84;10384822;28;20077;-76
2022/04/05 07:24:50;;;;;;;6.55;5.10;;;;;;;10.11;100.00;100646.13;10388076;28;20034;-78
2022/04/05 07:29:51;;;;;;;6.60;4.75;;;;;;;10.10;100.00;100639.06;10391524;28;20033;-77
2022/04/05 07:34:52;;;;;;;10.15;6.10;;;;;;;10.09;100.00;100648.22;10402434;28;20037;-79
2022/04/05 07:39:52;;;;;;;10.32;5.32;;;;;;;10.14;100.00;100641.13;10365991;28;20037;-77
2022/04/05 07:44:53;;;;;;;11.05;5.15;;;;;;;10.00;100.00;100642.97;10407846;28;20042;-79
2022/04/05 07:49:53;;;;;;;8.45;4.47;;;;;;;10.05;100.00;100641.50;10404755;28;20030;-77
2022/04/05 07:54:54;;;;;;;6.50;4.38;;;;;;;10.13;100.00;100634.06;10403105;28;20038;-78
2022/04/05 07:59:54;;;;;;;9.82;5.35;;;;;;;10.27;100.00;100639.56;10396277;28;20034;-77
2022/04/05 08:04:54;;;;;;;14.02;4.25;;;;;;;10.44;100.00;100639.03;10391000;28;20478;-78
2022/04/05 08:09:56;;;;;;;12.50;5.35;;;;;;;10.51;100.00;100647.16;10384680;28;20030;-77
2022/04/05 08:14:56;;;;;;;3.78;3.28;;;;;;;10.42;100.00;100649.22;10384716;28;20048;-77
2022/04/05 08:19:57;;;;;;;14.77;5.00;;;;;;;10.32;100.00;100651.47;10385207;28;20060;-79
2022/04/05 08:24:57;;;;;;;11.30;5.22;;;;;;;10.28;100.00;100638.56;10386343;28;20069;-77
2022/04/05 08:29:58;;;;;;;5.10;4.13;;;;;;;10.35;100.00;100647.53;10383532;28;20060;-80
2022/04/05 08:34:58;;;;;;;8.18;5.53;;;;;;;10.51;100.00;100663.41;10388200;28;20136;-77
2022/04/05 08:39:59;;;;;;;11.30;4.75;;;;;;;10.64;100.00;100646.38;10386729;28;20049;-77
2022/04/05 08:45:00;;;;;;;11.05;4.78;;;;;;;10.88;100.00;100653.94;10386829;28;20038;-79
2022/04/05 08:50:02;;;;;;;7.63;3.35;;;;;;;11.12;100.00;100649.78;10384842;28;20103;-77
2022/04/05 08:55:03;;;;;;;5.38;4.75;;;;;;;11.06;100.00;100666.03;10384657;28;20030;-77
2022/04/05 09:00:05;;;;;;;10.80;5.18;;;;;;;11.00;100.00;100672.28;10371570;28;20445;-78
2022/04/05 09:05:06;;;;;;;13.60;5.28;;;;;;;10.89;100.00;100662.91;10390327;28;20037;-77
2022/04/05 09:10:16;;;;;;;8.27;4.15;;;;;;;10.87;100.00;100668.50;10392003;28;20056;-78
2022/04/05 09:15:16;;;;;;;4.38;2.80;;;;;;;11.19;100.00;100671.47;10394283;28;20115;-78
2022/04/05 09:20:18;;;;;;;11.50;3.97;;;;;;;11.32;100.00;100673.34;10383867;28;20056;-76
2022/04/05 09:25:19;;;;;;;11.73;5.25;;;;;;;11.45;100.00;100673.34;10378098;28;20310;-76
2022/04/05 09:30:29;;;;;;;12.75;4.40;;;;;;;11.69;100.00;100671.88;10376058;28;20030;-77
2022/04/05 09:35:41;;;;;;;6.32;3.00;;;;;;;11.92;100.00;100682.31;10375137;28;20098;-76
2022/04/05 09:40:42;;;;;;;7.15;3.97;;;;;;;12.11;100.00;100688.75;10373192;28;20042;-78
2022/04/05 09:45:55;;;;;;;2.95;2.72;;;;;;;11.88;100.00;100691.94;10357933;28;20026;-77
2022/04/05 09:51:09;;;;;;;6.03;4.60;;;;;;;11.74;100.00;100688.38;10372637;28;20042;-76
2022/04/05 09:56:38;;;;;;;7.88;3.67;;;;;;;11.67;100.00;100684.00;10374772;28;20100;-76
2022/04/05 10:01:39;;;;;;;4.47;3.85;;;;;;;11.67;100.00;100695.66;10372543;28;20140;-76
2022/04/05 10:06:43;;;;;;;9.48;3.97;;;;;;;11.85;100.00;100687.75;10373773;28;20049;-75
2022/04/05 10:11:43;;;;;;;9.82;3.92;;;;;;;11.94;100.00;100679.41;10372077;28;20037;-76
2022/04/05 10:16:44;;;;;;;7.70;3.53;;;;;;;12.77;100.00;100696.63;10362283;28;20398;-77
2022/04/05 10:21:44;;;;;;;9.02;4.65;;;;;;;13.49;100.00;100680.91;10380726;28;20037;-76
2022/04/05 10:26:47;;;;;;;7.70;4.05;;;;;;;13.35;100.00;100682.06;10380891;28;20100;-77
2022/04/05 10:32:02;;;;;;;13.27;5.53;;;;;;;13.01;100.00;100683.31;10382803;28;20529;-77
2022/04/05 10:37:17;;;;;;;5.18;3.58;;;;;;;12.92;100.00;100695.50;10364816;28;20038;-76
2022/04/05 10:42:21;;;;;;;8.88;3.15;;;;;;;12.79;100.00;100680.97;10381847;28;20052;-77
2022/04/05 10:47:22;;;;;;;3.75;3.35;;;;;;;12.77;100.00;100674.06;10384302;28;20124;-77
2022/04/05 10:52:27;;;;;;;6.55;3.22;;;;;;;13.04;100.00;100691.03;10379082;28;20141;-77
2022/04/05 10:57:38;;;;;;;4.75;3.22;;;;;;;13.06;100.00;100675.34;10380456;28;20175;-77
2022/04/05 11:02:44;;;;;;;8.52;3.85;;;;;;;13.09;100.00;100677.63;10379620;28;20482;-76
2022/04/05 11:07:59;;;;;;;6.22;3.70;;;;;;;13.14;100.00;100669.63;10381151;28;20073;-77
2022/04/05 11:13:04;;;;;;;6.13;3.20;;;;;;;13.29;100.00;100679.41;10381492;28;20029;-78
2022/04/05 11:18:04;;;;;;;6.15;3.90;;;;;;;13.65;100.00;100674.06;10380626;28;20049;-77
2022/04/05 11:23:05;;;;;;;4.68;3.80;;;;;;;13.71;100.00;100667.72;10362502;28;20049;-77
2022/04/05 11:28:12;;;;;;;3.35;3.05;;;;;;;13.22;100.00;100672.09;10376769;28;20099;-78
2022/04/05 11:33:34;;;;;;;;;;;;;;;12.96;100.00;100685.88;10379097;28;20038;-76
2022/04/05 11:38:51;;;;;;;5.75;4.28;;;;;;;12.70;100.00;100673.25;10380374;28;20305;-78
2022/04/05 11:44:02;;;;;;;5.18;4.28;;;;;;;12.55;100.00;100681.72;10378901;28;20535;-78
2022/04/05 11:49:04;;;;;;;6.15;5.25;;;;;;;12.43;100.00;100689.69;10378425;28;20516;-77
2022/04/05 11:54:19;;;;;;;4.95;3.80;;;;;;;12.26;100.00;100700.19;10378459;28;20038;-78
2022/04/05 11:59:25;;;;;;;10.93;3.90;;;;;;;12.31;100.00;100697.66;10377209;28;20112;-77
2022/04/05 12:04:27;;;;;;;13.45;4.28;;;;;;;12.12;100.00;100695.00;10378639;28;20050;-78
2022/04/05 12:09:27;;;;;;;6.50;4.53;;;;;;;12.00;100.00;100701.09;10361321;28;20037;-77
2022/04/05 12:14:29;;;;;;;7.53;4.80;;;;;;;11.91;100.00;100696.09;10376388;28;20034;-77
2022/04/05 12:19:37;;;;;;;10.90;4.32;;;;;;;11.82;100.00;100693.56;10375703;28;20050;-78
2022/04/05 12:24:42;;;;;;;7.45;4.68;;;;;;;11.77;100.00;100696.09;10376929;28;20084;-77
2022/04/05 12:29:43;;;;;;;7.93;4.43;;;;;;;11.80;100.00;100684.78;10376819;28;20180;-77
2022/04/05 12:34:43;;;;;;;4.32;3.05;;;;;;;12.04;100.00;100685.22;10377346;28;20044;-79
2022/04/05 12:39:50;;;;;;;15.23;5.15;;;;;;;12.02;100.00;100682.69;10359161;28;20041;-79
2022/04/05 12:44:58;;;;;;;9.48;4.07;;;;;;;11.94;100.00;100688.38;10361014;28;20030;-78
2022/04/05 12:50:00;;;;;;;6.93;3.95;;;;;;;11.91;100.00;100685.25;10375490;28;20089;-78
2022/04/05 12:55:14;;;;;;;9.45;4.93;;;;;;;11.94;100.00;100680.22;10377414;28;20069;-78
2022/04/05 13:00:27;;;;;;;7.55;4.13;;;;;;;12.01;100.00;100667.47;10379288;28;20037;-78
2022/04/05 13:10:49;;;;;;;6.00;3.97;;;;;;;12.28;100.00;100660.09;10374890;28;20429;-77
2022/04/05 13:15:59;;;;;;;10.93;4.78;;;;;;;12.95;100.00;100662.44;10376396;28;20034;-77
2022/04/05 13:21:02;;;;;;;7.97;4.68;;;;;;;12.93;100.00;100656.41;10377122;28;20050;-79
2022/04/05 13:26:03;;;;;;;6.30;3.00;;;;;;;12.85;100.00;100643.91;10375508;28;20033;-78
2022/04/05 13:31:11;;;;;;;8.02;4.88;;;;;;;12.56;100.00;100650.75;10358186;28;20121;-79
2022/04/05 13:36:11;;;;;;;5.15;3.85;;;;;;;12.46;100.00;100645.81;10372408;28;20059;-78
2022/04/05 13:41:12;;;;;;;6.85;4.35;;;;;;;12.22;100.00;100655.53;10373250;28;20026;-78
2022/04/05 13:46:12;;;;;;;13.63;6.32;;;;;;;12.16;100.00;100647.41;10374016;28;20370;-79
2022/04/05 13:51:12;;;;;;;11.55;5.18;;;;;;;11.89;100.00;100639.31;10373640;28;20034;-79
2022/04/05 13:56:13;;;;;;;5.13;4.28;;;;;;;11.52;100.00;100640.81;10373885;28;20386;-78
2022/04/05 14:01:13;;;;;;;8.55;4.85;;;;;;;11.35;100.00;100632.28;10375355;28;20041;-77
2022/04/05 14:06:14;;;;;;;7.57;5.68;;;;;;;11.28;100.00;100626.84;10373922;28;20042;-78
2022/04/05 14:11:14;;;;;;;14.95;5.63;;;;;;;11.39;100.00;100623.53;10356019;28;20569;-78
2022/04/05 14:16:15;;;;;;;13.38;7.00;;;;;;;11.70;100.00;100623.91;10373456;28;20045;-78
2022/04/05 14:21:16;;;;;;;8.00;5.22;;;;;;;11.92;100.00;100613.66;10374809;28;20402;-79
2022/04/05 14:26:16;;;;;;;6.18;4.97;;;;;;;12.23;100.00;100616.47;10374303;28;20030;-79
2022/04/05 14:31:16;;;;;;;6.82;5.60;;;;;;;12.44;100.00;100609.03;10374026;28;20034;-79
2022/04/05 14:36:17;;;;;;;7.88;4.70;;;;;;;12.85;100.00;100607.75;10371071;28;20481;-79
2022/04/05 14:41:20;;;;;;;8.18;4.95;;;;;;;12.97;100.00;100608.72;10371660;28;20053;-78
2022/04/05 14:46:20;;;;;;;13.50;4.65;;;;;;;13.13;100.00;100608.16;10371590;28;20192;-79
2022/04/05 14:51:21;;;;;;;12.18;4.50;;;;;;;13.01;100.00;100601.78;10372063;28;20469;-78
2022/04/05 14:56:21;;;;;;;9.70;4.35;;;;;;;12.64;100.00;100609.78;10372685;28;20068;-79
2022/04/05 15:01:21;;;;;;;10.30;5.38;;;;;;;12.40;100.00;100597.78;10374992;28;20437;-78
2022/04/05 15:06:24;;;;;;;7.28;4.35;;;;;;;12.15;100.00;100605.00;10378371;28;20046;-79
2022/04/05 15:11:24;;;;;;;18.35;5.95;;;;;;;11.80;100.00;100602.56;10379695;28;20124;-77
2022/04/05 15:16:26;;;;;;;8.45;5.68;;;;;;;11.51;100.00;100598.47;10379189;28;20620;-77
2022/04/05 15:21:26;;;;;;;9.25;5.50;;;;;;;11.18;100.00;100594.75;10379601;28;20045;-76
2022/04/05 15:26:27;;;;;;;10.27;4.93;;;;;;;10.99;100.00;100590.16;10379284;28;20073;-77
2022/04/05 15:31:27;;;;;;;14.40;6.55;;;;;;;10.99;100.00;100594.75;10378704;28;20026;-76
2022/04/05 15:36:29;;;;;;;13.43;6.03;;;;;;;10.96;100.00;100589.75;10377747;28;20029;-76
2022/04/05 15:41:29;;;;;;;11.43;7.07;;;;;;;11.00;100.00;100596.41;10380092;28;20075;-77
2022/04/05 15:46:29;;;;;;;11.18;5.63;;;;;;;10.96;100.00;100593.28;10379294;28;20160;-78
2022/04/05 15:51:30;;;;;;;19.90;5.78;;;;;;;10.81;100.00;100582.63;10379932;28;20092;-77
2022/04/05 15:56:30;;;;;;;9.40;6.88;;;;;;;10.82;100.00;100589.75;10377333;28;20037;-75
2022/04/05 16:01:31;;;;;;;11.73;4.82;;;;;;;10.82;100.00;100578.09;10360031;28;20041;-77
2022/04/05 16:06:31;;;;;;;16.13;5.85;;;;;;;10.85;100.00;100578.50;10375457;28;20525;-77
2022/04/05 16:11:31;;;;;;;16.33;5.63;;;;;;;10.98;100.00;100579.56;10375711;28;20026;-77
2022/04/05 16:16:36;;;;;;;16.17;5.93;;;;;;;10.96;100.00;100574.31;10377726;28;20034;-77
2022/04/05 16:21:36;;;;;;;14.23;5.18;;;;;;;11.03;100.00;100572.44;10383950;28;20133;-77
2022/04/05 16:26:38;;;;;;;4.78;3.92;;;;;;;11.03;100.00;100569.72;10375869;28;20394;-77
2022/04/05 16:31:39;;;;;;;8.80;5.07;;;;;;;11.04;100.00;100563.28;10376064;28;20041;-78
2022/04/05 16:36:39;;;;;;;17.17;4.53;;;;;;;11.09;100.00;100552.63;10385402;28;20169;-76
2022/04/05 16:41:40;;;;;;;16.98;4.40;;;;;;;11.15;100.00;100559.94;10393547;28;20033;-76
2022/04/05 16:46:40;;;;;;;12.52;5.32;;;;;;;11.15;100.00;100540.97;10385767;28;20049;-76
2022/04/05 16:51:41;;;;;;;16.67;4.97;;;;;;;11.17;100.00;100547.03;10409012;28;20106;-78
2022/04/05 16:56:43;;;;;;;16.80;5.35;;;;;;;11.28;100.00;100545.53;10413154;28;20466;-78
2022/04/05 17:01:44;;;;;;;4.88;3.63;;;;;;;11.25;100.00;100548.66;10378847;28;20041;-77
2022/04/05 17:06:44;;;;;;;12.05;4.53;;;;;;;11.15;100.00;100548.28;10406088;28;20069;-77
2022/04/05 17:11:45;;;;;;;9.73;5.63;;;;;;;11.19;100.00;100541.38;10402794;28;20118;-79
2022/04/05 17:16:45;;;;;;;13.95;6.55;;;;;;;11.11;100.00;100550.56;10388181;28;20052;-78
2022/04/05 17:21:45;;;;;;;27.10;6.70;;;;;;;11.01;100.00;100549.31;10385529;28;20041;-77
2022/04/05 17:26:46;;;;;;;7.18;4.85;;;;;;;10.91;100.00;100545.16;10376698;28;20079;-77
2022/04/05 17:31:47;;;;;;;13.05;6.25;;;;;;;10.91;100.00;100547.00;10378706;28;20137;-78
2022/04/05 17:36:47;;;;;;;9.70;6.40;;;;;;;10.88;100.00;100540.16;10363548;28;20029;-78
2022/04/05 17:41:47;;;;;;;9.15;6.00;;;;;;;10.85;100.00;100534.31;10379301;28;20030;-78
2022/04/05 17:46:49;;;;;;;12.13;6.32;;;;;;;10.89;100.00;100532.84;10393710;28;20045;-78
2022/04/05 17:51:49;;;;;;;13.20;4.43;;;;;;;10.81;100.00;100536.59;10359709;28;20362;-78
2022/04/05 17:56:49;;;;;;;9.15;4.82;;;;;;;10.77;100.00;100539.94;10358909;28;20029;-79
2022/04/05 18:01:50;;;;;;;14.15;5.65;;;;;;;10.64;100.00;100538.06;10375942;28;20480;-78
2022/04/05 18:06:50;;;;;;;17.42;5.88;;;;;;;10.62;100.00;100530.13;10375750;28;20077;-79
2022/04/05 18:11:51;;;;;;;9.00;5.30;;;;;;;10.66;100.00;100522.44;10374434;28;20030;-78
2022/04/05 18:16:51;;;;;;;22.05;5.85;;;;;;;10.62;100.00;100537.41;10376430;28;20105;-77
2022/04/05 18:21:52;;;;;;;14.73;6.35;;;;;;;10.62;100.00;100532.00;10374983;28;20037;-78
2022/04/05 18:26:52;;;;;;;16.25;6.78;;;;;;;10.51;100.00;100536.16;10375375;28;20117;-78
2022/04/05 18:31:53;;;;;;;8.10;6.15;;;;;;;10.58;100.00;100541.59;10374775;28;20038;-78
2022/04/05 18:36:53;;;;;;;14.55;5.45;;;;;;;10.55;100.00;100539.28;10380322;28;20061;-75
2022/04/05 18:41:53;;;;;;;17.92;6.57;;;;;;;10.55;100.00;100531.16;10381180;28;20034;-80
2022/04/05 18:46:54;;;;;;;8.70;5.55;;;;;;;10.51;100.00;100533.47;10382173;28;20038;-79
2022/04/05 18:51:54;;;;;;;22.73;7.03;;;;;;;10.42;100.00;100540.94;10383910;28;20101;-76
2022/04/05 18:56:56;;;;;;;12.90;4.93;;;;;;;10.45;100.00;100542.41;10380679;28;20378;-78
2022/04/05 19:01:56;;;;;;;20.75;6.57;;;;;;;10.46;100.00;100534.09;10382369;28;20045;-78
2022/04/05 19:06:59;;;;;;;22.08;6.40;;;;;;;10.42;100.00;100538.22;10381209;28;20112;-78
2022/04/05 19:12:00;;;;;;;15.85;5.65;;;;;;;10.33;100.00;100541.31;10382875;28;20345;-78
2022/04/05 19:17:01;;;;;;;11.73;5.63;;;;;;;10.17;100.00;100545.22;10381889;28;20034;-78
2022/04/05 19:22:01;;;;;;;12.38;5.57;;;;;;;10.06;100.00;100540.41;10381034;28;20038;-79
2022/04/05 19:27:02;;;;;;;11.13;6.10;;;;;;;9.95;100.00;100533.69;10381578;28;20386;-76
2022/04/05 19:32:04;;;;;;;11.07;7.03;;;;;;;9.85;100.00;100538.63;10378919;28;20542;-76
2022/04/05 19:37:04;;;;;;;25.27;7.30;;;;;;;9.73;100.00;100530.25;10381910;28;20033;-77
2022/04/05 19:42:05;;;;;;;19.13;5.97;;;;;;;9.64;100.00;100528.78;10380390;28;20489;-81
2022/04/05 19:47:05;;;;;;;18.75;6.53;;;;;;;9.56;100.00;100527.06;10382961;28;20037;-81
2022/04/05 19:52:06;;;;;;;30.52;7.13;;;;;;;9.46;100.00;100526.59;10382185;28;20041;-80
2022/04/05 19:57:07;;;;;;;15.65;6.28;;;;;;;9.46;100.00;100532.00;10365372;28;20531;-81
2022/04/05 20:02:10;;;;;;;18.42;7.00;;;;;;;9.53;100.00;100531.00;10384443;28;20033;-82
2022/04/05 20:07:10;;;;;;;19.63;6.22;;;;;;;9.71;100.00;100524.25;10387625;28;20038;-80
2022/04/05 20:12:11;;;;;;;17.70;7.03;;;;;;;9.78;100.00;100523.22;10381625;28;20490;-77
2022/04/05 20:22:30;;;;;;;14.43;6.18;;;;;;;9.90;100.00;100522.66;10365781;28;20132;-81
2022/04/05 20:27:31;;;;;;;16.25;6.00;;;;;;;9.92;100.00;100520.56;10377817;28;20034;-78
2022/04/05 20:32:31;;;;;;;11.75;6.25;;;;;;;9.95;100.00;100507.47;10379092;28;20138;-80
2022/04/05 20:37:32;;;;;;;17.67;5.25;;;;;;;10.06;100.00;100516.06;10378068;28;20119;-76
2022/04/05 20:42:32;;;;;;;16.98;7.53;;;;;;;10.10;100.00;100517.31;10379384;28;20421;-77
2022/04/05 20:47:32;;;;;;;18.80;6.28;;;;;;;10.04;100.00;100491.06;10377037;28;20053;-77
2022/04/05 20:52:33;;;;;;;24.20;6.55;;;;;;;10.05;100.00;100503.53;10376739;28;20501;-77
2022/04/05 20:57:33;;;;;;;13.98;6.35;;;;;;;10.08;100.00;100500.44;10377083;28;20034;-78
2022/04/05 21:02:34;;;;;;;20.23;7.20;;;;;;;9.87;100.00;100494.13;10376843;28;20041;-77
2022/04/05 21:07:34;;;;;;;10.20;6.28;;;;;;;9.77;100.00;100504.50;10377740;28;20041;-75
2022/04/05 21:12:35;;;;;;;23.00;7.15;;;;;;;9.76;100.00;100502.81;10376915;28;20435;-77
2022/04/05 21:17:36;;;;;;;20.05;6.97;;;;;;;9.68;100.00;100501.13;10376176;28;20058;-77
2022/04/05 21:22:36;;;;;;;18.92;6.68;;;;;;;9.73;100.00;100497.81;10374943;28;20417;-77
2022/04/05 21:27:37;;;;;;;17.20;6.93;;;;;;;9.80;100.00;100487.88;10377300;28;20072;-77
2022/04/05 21:32:37;;;;;;;25.45;7.30;;;;;;;9.85;100.00;100488.09;10377709;28;20541;-77
2022/04/05 21:37:37;;;;;;;10.90;6.35;;;;;;;9.84;100.00;100483.72;10376837;28;20363;-74
2022/04/05 21:42:38;;;;;;;16.80;6.55;;;;;;;9.84;100.00;100486.44;10376192;28;20072;-77
2022/04/05 21:47:38;;;;;;;19.15;6.15;;;;;;;9.78;100.00;100466.44;10374676;28;20041;-77
2022/04/05 21:52:40;;;;;;;11.63;6.18;;;;;;;9.82;100.00;100464.16;10376304;28;20125;-76
2022/04/05 21:57:40;;;;;;;22.40;6.65;;;;;;;9.85;100.00;100452.09;10375223;28;20038;-76
2022/04/05 22:02:41;;;;;;;19.70;7.88;;;;;;;9.89;100.00;100454.22;10375494;28;20037;-77
2022/04/05 22:07:41;;;;;;;18.67;7.53;;;;;;;9.95;100.00;100453.38;10376395;28;20034;-77
2022/04/05 22:12:42;;;;;;;19.20;5.60;;;;;;;9.93;100.00;100441.94;10364303;28;20041;-76
2022/04/05 22:17:43;;;;;;;13.38;5.57;;;;;;;9.92;100.00;100442.13;10382266;28;20057;-77
2022/04/05 22:22:43;;;;;;;12.48;5.55;;;;;;;9.96;100.00;100443.41;10382999;28;20080;-76
2022/04/05 22:27:44;;;;;;;23.17;6.07;;;;;;;10.00;100.00;100439.25;10382489;28;20022;-78
2022/04/05 22:32:44;;;;;;;29.65;6.65;;;;;;;9.94;100.00;100442.78;10381516;28;20061;-75
2022/04/05 22:37:44;;;;;;;26.33;6.07;;;;;;;9.87;100.00;100445.47;10382707;28;20489;-77
2022/04/05 22:42:45;;;;;;;11.82;6.15;;;;;;;9.82;100.00;100437.09;10381102;28;20129;-77
2022/04/05 22:47:45;;;;;;;15.13;5.93;;;;;;;9.78;100.00;100435.84;10380718;28;20173;-77
2022/04/05 22:52:46;;;;;;;17.65;6.07;;;;;;;9.77;100.00;100442.31;10381609;28;20139;-77
2022/04/05 22:57:46;;;;;;;17.08;5.00;;;;;;;9.79;100.00;100440.22;10380608;28;20041;-77